sensor_id;sensor_type;location;lat;lon;timestamp;temperature;humidity
79762;DHT22;69249;42.122;24.734;2023-06-26T00:02:18;25.30;54.50
79762;DHT22;69249;42.122;24.734;2023-06-26T00:04:44;25.30;53.10
79762;DHT22;69249;42.122;24.734;2023-06-26T00:07:10;25.50;52.70
79762;DHT22;69249;42.122;24.734;2023-06-26T00:09:36;25.50;52.50
79762;DHT22;69249;42.122;24.734;2023-06-26T00:12:03;25.50;52.50
79762;DHT22;69249;42.122;24.734;2023-06-26T00:14:29;25.60;52.30
79762;DHT22;69249;42.122;24.734;2023-06-26T00:16:54;25.60;52.10
79762;DHT22;69249;42.122;24.734;2023-06-26T00:19:20;25.50;52.70
79762;DHT22;69249;42.122;24.734;2023-06-26T00:21:46;25.40;53.20
79762;DHT22;69249;42.122;24.734;2023-06-26T00:24:12;25.50;52.70
79762;DHT22;69249;42.122;24.734;2023-06-26T00:26:38;25.50;52.70
79762;DHT22;69249;42.122;24.734;2023-06-26T00:29:04;25.50;52.90
79762;DHT22;69249;42.122;24.734;2023-06-26T00:31:30;25.50;52.70
79762;DHT22;69249;42.122;24.734;2023-06-26T00:33:56;25.50;52.60
79762;DHT22;69249;42.122;24.734;2023-06-26T00:36:21;25.50;52.70
79762;DHT22;69249;42.122;24.734;2023-06-26T00:38:49;25.50;52.70
79762;DHT22;69249;42.122;24.734;2023-06-26T00:41:15;25.60;52.50
79762;DHT22;69249;42.122;24.734;2023-06-26T00:43:41;25.50;52.40
79762;DHT22;69249;42.122;24.734;2023-06-26T00:46:09;25.40;52.60
79762;DHT22;69249;42.122;24.734;2023-06-26T00:48:36;25.30;53.10
79762;DHT22;69249;42.122;24.734;2023-06-26T00:51:03;25.30;53.30
79762;DHT22;69249;42.122;24.734;2023-06-26T00:53:29;25.30;53.30
79762;DHT22;69249;42.122;24.734;2023-06-26T00:55:55;25.30;53.40
79762;DHT22;69249;42.122;24.734;2023-06-26T00:58:25;25.20;53.70
79762;DHT22;69249;42.122;24.734;2023-06-26T01:00:51;25.10;54.10
79762;DHT22;69249;42.122;24.734;2023-06-26T01:03:17;25.10;54.00
79762;DHT22;69249;42.122;24.734;2023-06-26T01:05:43;25.10;54.20
79762;DHT22;69249;42.122;24.734;2023-06-26T01:08:12;25.00;54.40
79762;DHT22;69249;42.122;24.734;2023-06-26T01:10:39;24.90;54.80
79762;DHT22;69249;42.122;24.734;2023-06-26T01:13:05;24.80;55.20
79762;DHT22;69249;42.122;24.734;2023-06-26T01:15:30;24.90;55.00
79762;DHT22;69249;42.122;24.734;2023-06-26T01:17:57;24.80;55.60
79762;DHT22;69249;42.122;24.734;2023-06-26T01:20:32;24.80;55.70
79762;DHT22;69249;42.122;24.734;2023-06-26T01:23:26;24.80;55.70
79762;DHT22;69249;42.122;24.734;2023-06-26T01:26:19;24.70;56.10
79762;DHT22;69249;42.122;24.734;2023-06-26T01:28:46;24.80;56.00
79762;DHT22;69249;42.122;24.734;2023-06-26T01:31:13;24.70;55.70
79762;DHT22;69249;42.122;24.734;2023-06-26T01:33:40;24.70;56.10
79762;DHT22;69249;42.122;24.734;2023-06-26T01:36:07;24.60;56.60
79762;DHT22;69249;42.122;24.734;2023-06-26T01:38:33;24.50;56.70
79762;DHT22;69249;42.122;24.734;2023-06-26T01:41:00;24.50;57.20
79762;DHT22;69249;42.122;24.734;2023-06-26T01:43:51;24.40;57.40
79762;DHT22;69249;42.122;24.734;2023-06-26T01:52:27;24.40;57.50
79762;DHT22;69249;42.122;24.734;2023-06-26T01:55:03;24.30;57.60
79762;DHT22;69249;42.122;24.734;2023-06-26T01:57:31;24.40;57.50
79762;DHT22;69249;42.122;24.734;2023-06-26T01:59:58;24.40;57.40
79762;DHT22;69249;42.122;24.734;2023-06-26T02:02:24;24.40;57.50
79762;DHT22;69249;42.122;24.734;2023-06-26T02:04:51;24.40;57.50
79762;DHT22;69249;42.122;24.734;2023-06-26T02:07:16;24.50;56.90
79762;DHT22;69249;42.122;24.734;2023-06-26T02:09:42;24.30;57.50
79762;DHT22;69249;42.122;24.734;2023-06-26T02:12:09;24.30;57.70
79762;DHT22;69249;42.122;24.734;2023-06-26T02:14:35;24.30;57.80
79762;DHT22;69249;42.122;24.734;2023-06-26T02:17:00;24.40;57.80
79762;DHT22;69249;42.122;24.734;2023-06-26T02:19:26;24.30;57.70
79762;DHT22;69249;42.122;24.734;2023-06-26T02:21:53;24.40;57.70
79762;DHT22;69249;42.122;24.734;2023-06-26T02:24:19;24.40;57.90
79762;DHT22;69249;42.122;24.734;2023-06-26T02:26:45;24.30;58.00
79762;DHT22;69249;42.122;24.734;2023-06-26T02:29:11;24.30;58.10
79762;DHT22;69249;42.122;24.734;2023-06-26T02:31:37;24.40;57.90
79762;DHT22;69249;42.122;24.734;2023-06-26T02:34:04;24.40;57.70
79762;DHT22;69249;42.122;24.734;2023-06-26T02:36:29;24.40;57.60
79762;DHT22;69249;42.122;24.734;2023-06-26T02:38:55;24.60;57.10
79762;DHT22;69249;42.122;24.734;2023-06-26T02:41:21;24.50;57.20
79762;DHT22;69249;42.122;24.734;2023-06-26T02:43:46;24.50;57.50
79762;DHT22;69249;42.122;24.734;2023-06-26T02:46:12;24.50;57.20
79762;DHT22;69249;42.122;24.734;2023-06-26T02:48:38;24.50;57.40
79762;DHT22;69249;42.122;24.734;2023-06-26T02:51:04;24.60;57.10
79762;DHT22;69249;42.122;24.734;2023-06-26T02:53:30;24.50;57.60
79762;DHT22;69249;42.122;24.734;2023-06-26T02:55:56;24.40;57.70
79762;DHT22;69249;42.122;24.734;2023-06-26T02:58:22;24.30;57.60
79762;DHT22;69249;42.122;24.734;2023-06-26T03:00:47;24.30;57.80
79762;DHT22;69249;42.122;24.734;2023-06-26T03:03:13;24.40;57.40
79762;DHT22;69249;42.122;24.734;2023-06-26T03:05:39;24.40;57.20
79762;DHT22;69249;42.122;24.734;2023-06-26T03:08:05;24.40;57.20
79762;DHT22;69249;42.122;24.734;2023-06-26T03:10:30;24.40;56.80
79762;DHT22;69249;42.122;24.734;2023-06-26T03:12:56;24.60;56.50
79762;DHT22;69249;42.122;24.734;2023-06-26T03:15:22;24.50;56.60
79762;DHT22;69249;42.122;24.734;2023-06-26T03:17:47;24.60;56.50
79762;DHT22;69249;42.122;24.734;2023-06-26T03:20:13;24.70;56.40
79762;DHT22;69249;42.122;24.734;2023-06-26T03:22:41;24.60;56.60
79762;DHT22;69249;42.122;24.734;2023-06-26T03:25:06;24.70;56.30
79762;DHT22;69249;42.122;24.734;2023-06-26T03:27:33;24.80;56.00
79762;DHT22;69249;42.122;24.734;2023-06-26T03:29:59;24.90;55.20
79762;DHT22;69249;42.122;24.734;2023-06-26T03:32:24;24.90;55.40
79762;DHT22;69249;42.122;24.734;2023-06-26T03:34:50;24.90;55.30
79762;DHT22;69249;42.122;24.734;2023-06-26T03:37:16;25.00;55.30
79762;DHT22;69249;42.122;24.734;2023-06-26T03:39:41;25.00;55.50
79762;DHT22;69249;42.122;24.734;2023-06-26T03:42:07;25.00;55.20
79762;DHT22;69249;42.122;24.734;2023-06-26T03:44:33;24.90;55.20
79762;DHT22;69249;42.122;24.734;2023-06-26T03:46:58;25.00;55.40
79762;DHT22;69249;42.122;24.734;2023-06-26T03:49:24;24.80;55.60
79762;DHT22;69249;42.122;24.734;2023-06-26T03:51:50;24.80;55.70
79762;DHT22;69249;42.122;24.734;2023-06-26T03:54:15;24.80;55.80
79762;DHT22;69249;42.122;24.734;2023-06-26T03:56:41;24.90;58.10
79762;DHT22;69249;42.122;24.734;2023-06-26T03:59:06;25.00;55.40
79762;DHT22;69249;42.122;24.734;2023-06-26T04:01:32;25.00;55.30
79762;DHT22;69249;42.122;24.734;2023-06-26T04:03:59;25.00;55.20
79762;DHT22;69249;42.122;24.734;2023-06-26T04:06:25;25.10;55.00
79762;DHT22;69249;42.122;24.734;2023-06-26T04:08:51;25.00;55.00
79762;DHT22;69249;42.122;24.734;2023-06-26T04:11:16;25.10;54.90
79762;DHT22;69249;42.122;24.734;2023-06-26T04:13:42;25.20;54.80
79762;DHT22;69249;42.122;24.734;2023-06-26T04:16:07;25.00;55.00
79762;DHT22;69249;42.122;24.734;2023-06-26T04:18:33;25.20;54.70
79762;DHT22;69249;42.122;24.734;2023-06-26T04:21:12;25.20;54.70
79762;DHT22;69249;42.122;24.734;2023-06-26T04:23:39;25.20;55.00
79762;DHT22;69249;42.122;24.734;2023-06-26T04:26:06;25.20;54.60
79762;DHT22;69249;42.122;24.734;2023-06-26T04:28:33;25.30;54.70
79762;DHT22;69249;42.122;24.734;2023-06-26T04:31:05;25.30;54.60
79762;DHT22;69249;42.122;24.734;2023-06-26T04:33:31;25.40;54.00
79762;DHT22;69249;42.122;24.734;2023-06-26T04:35:57;25.40;54.10
79762;DHT22;69249;42.122;24.734;2023-06-26T04:38:23;25.60;53.70
79762;DHT22;69249;42.122;24.734;2023-06-26T04:40:49;25.60;53.60
79762;DHT22;69249;42.122;24.734;2023-06-26T04:43:14;25.60;53.70
79762;DHT22;69249;42.122;24.734;2023-06-26T04:45:40;25.60;54.00
79762;DHT22;69249;42.122;24.734;2023-06-26T04:48:06;25.60;54.20
79762;DHT22;69249;42.122;24.734;2023-06-26T04:50:32;25.60;53.70
79762;DHT22;69249;42.122;24.734;2023-06-26T04:52:59;25.60;53.40
79762;DHT22;69249;42.122;24.734;2023-06-26T04:55:25;25.80;52.60
79762;DHT22;69249;42.122;24.734;2023-06-26T04:57:51;25.80;52.60
79762;DHT22;69249;42.122;24.734;2023-06-26T05:00:17;25.90;52.80
79762;DHT22;69249;42.122;24.734;2023-06-26T05:02:43;26.00;52.80
79762;DHT22;69249;42.122;24.734;2023-06-26T05:05:09;26.10;51.40
79762;DHT22;69249;42.122;24.734;2023-06-26T05:07:40;26.20;51.70
79762;DHT22;69249;42.122;24.734;2023-06-26T05:10:07;26.20;51.80
79762;DHT22;69249;42.122;24.734;2023-06-26T05:12:33;26.20;51.90
79762;DHT22;69249;42.122;24.734;2023-06-26T05:14:59;26.10;51.80
79762;DHT22;69249;42.122;24.734;2023-06-26T05:17:25;26.20;51.50
79762;DHT22;69249;42.122;24.734;2023-06-26T05:19:50;26.30;51.20
79762;DHT22;69249;42.122;24.734;2023-06-26T05:22:20;26.50;50.40
79762;DHT22;69249;42.122;24.734;2023-06-26T05:24:59;26.40;50.30
79762;DHT22;69249;42.122;24.734;2023-06-26T05:27:26;26.40;50.80
79762;DHT22;69249;42.122;24.734;2023-06-26T05:29:52;26.30;50.70
79762;DHT22;69249;42.122;24.734;2023-06-26T05:32:18;26.40;51.10
79762;DHT22;69249;42.122;24.734;2023-06-26T05:34:47;26.50;50.40
79762;DHT22;69249;42.122;24.734;2023-06-26T05:37:18;26.60;49.20
79762;DHT22;69249;42.122;24.734;2023-06-26T05:39:45;26.60;49.40
79762;DHT22;69249;42.122;24.734;2023-06-26T05:42:14;26.60;49.40
79762;DHT22;69249;42.122;24.734;2023-06-26T05:44:40;26.60;49.40
79762;DHT22;69249;42.122;24.734;2023-06-26T05:47:06;26.60;49.30
79762;DHT22;69249;42.122;24.734;2023-06-26T05:49:33;26.70;48.80
79762;DHT22;69249;42.122;24.734;2023-06-26T05:51:58;26.70;49.00
79762;DHT22;69249;42.122;24.734;2023-06-26T05:54:25;26.90;48.20
79762;DHT22;69249;42.122;24.734;2023-06-26T05:56:58;27.00;48.10
79762;DHT22;69249;42.122;24.734;2023-06-26T05:59:25;27.00;47.60
79762;DHT22;69249;42.122;24.734;2023-06-26T06:01:52;27.10;47.70
79762;DHT22;69249;42.122;24.734;2023-06-26T06:04:21;27.20;47.10
79762;DHT22;69249;42.122;24.734;2023-06-26T06:06:47;27.30;47.10
79762;DHT22;69249;42.122;24.734;2023-06-26T06:09:13;27.40;46.50
79762;DHT22;69249;42.122;24.734;2023-06-26T06:11:38;27.30;46.50
79762;DHT22;69249;42.122;24.734;2023-06-26T06:14:04;27.10;46.90
79762;DHT22;69249;42.122;24.734;2023-06-26T06:16:30;27.00;47.20
79762;DHT22;69249;42.122;24.734;2023-06-26T06:18:55;27.00;47.20
79762;DHT22;69249;42.122;24.734;2023-06-26T06:21:21;26.90;47.40
79762;DHT22;69249;42.122;24.734;2023-06-26T06:23:47;27.00;47.40
79762;DHT22;69249;42.122;24.734;2023-06-26T06:26:12;26.90;47.30
79762;DHT22;69249;42.122;24.734;2023-06-26T06:28:39;26.90;47.60
79762;DHT22;69249;42.122;24.734;2023-06-26T06:31:11;27.00;47.60
79762;DHT22;69249;42.122;24.734;2023-06-26T06:33:39;27.10;47.70
79762;DHT22;69249;42.122;24.734;2023-06-26T06:36:05;27.20;47.00
79762;DHT22;69249;42.122;24.734;2023-06-26T06:38:31;27.20;47.10
79762;DHT22;69249;42.122;24.734;2023-06-26T06:40:57;27.30;46.80
79762;DHT22;69249;42.122;24.734;2023-06-26T06:43:22;27.20;47.30
79762;DHT22;69249;42.122;24.734;2023-06-26T06:45:51;27.20;46.90
79762;DHT22;69249;42.122;24.734;2023-06-26T06:48:17;27.30;46.90
79762;DHT22;69249;42.122;24.734;2023-06-26T06:50:46;27.30;46.40
79762;DHT22;69249;42.122;24.734;2023-06-26T06:53:11;27.20;46.30
79762;DHT22;69249;42.122;24.734;2023-06-26T06:55:37;27.20;46.80
79762;DHT22;69249;42.122;24.734;2023-06-26T06:58:03;27.30;46.30
79762;DHT22;69249;42.122;24.734;2023-06-26T07:00:28;27.30;47.10
79762;DHT22;69249;42.122;24.734;2023-06-26T07:02:57;27.20;46.60
79762;DHT22;69249;42.122;24.734;2023-06-26T07:05:23;27.30;46.80
79762;DHT22;69249;42.122;24.734;2023-06-26T07:07:49;27.40;46.00
79762;DHT22;69249;42.122;24.734;2023-06-26T07:10:14;27.50;46.20
79762;DHT22;69249;42.122;24.734;2023-06-26T07:12:40;27.70;45.20
79762;DHT22;69249;42.122;24.734;2023-06-26T07:15:06;28.00;44.30
79762;DHT22;69249;42.122;24.734;2023-06-26T07:17:33;28.20;43.30
79762;DHT22;69249;42.122;24.734;2023-06-26T07:20:02;28.30;43.00
79762;DHT22;69249;42.122;24.734;2023-06-26T07:22:33;28.30;42.70
79762;DHT22;69249;42.122;24.734;2023-06-26T07:24:58;28.40;43.60
79762;DHT22;69249;42.122;24.734;2023-06-26T07:27:25;28.40;42.00
79762;DHT22;69249;42.122;24.734;2023-06-26T07:29:54;28.50;42.50
79762;DHT22;69249;42.122;24.734;2023-06-26T07:32:20;28.40;41.70
79762;DHT22;69249;42.122;24.734;2023-06-26T07:34:45;28.40;41.60
79762;DHT22;69249;42.122;24.734;2023-06-26T07:37:11;28.40;41.90
79762;DHT22;69249;42.122;24.734;2023-06-26T07:39:42;28.40;42.40
79762;DHT22;69249;42.122;24.734;2023-06-26T07:42:08;28.50;41.10
79762;DHT22;69249;42.122;24.734;2023-06-26T07:44:34;28.50;41.10
79762;DHT22;69249;42.122;24.734;2023-06-26T07:46:59;28.60;41.10
79762;DHT22;69249;42.122;24.734;2023-06-26T07:49:25;28.80;41.00
79762;DHT22;69249;42.122;24.734;2023-06-26T07:51:51;28.90;40.20
79762;DHT22;69249;42.122;24.734;2023-06-26T07:54:16;29.20;40.40
79762;DHT22;69249;42.122;24.734;2023-06-26T07:57:01;29.50;39.10
79762;DHT22;69249;42.122;24.734;2023-06-26T07:59:29;29.80;37.50
79762;DHT22;69249;42.122;24.734;2023-06-26T08:01:56;30.00;37.80
79762;DHT22;69249;42.122;24.734;2023-06-26T08:04:30;30.10;37.50
79762;DHT22;69249;42.122;24.734;2023-06-26T08:06:58;30.20;37.10
79762;DHT22;69249;42.122;24.734;2023-06-26T08:09:34;30.10;37.20
79762;DHT22;69249;42.122;24.734;2023-06-26T08:12:00;30.10;37.20
79762;DHT22;69249;42.122;24.734;2023-06-26T08:14:26;30.10;36.90
79762;DHT22;69249;42.122;24.734;2023-06-26T08:16:51;29.80;37.30
79762;DHT22;69249;42.122;24.734;2023-06-26T08:19:17;29.60;38.50
79762;DHT22;69249;42.122;24.734;2023-06-26T08:21:44;29.70;39.00
79762;DHT22;69249;42.122;24.734;2023-06-26T08:24:10;29.60;38.90
79762;DHT22;69249;42.122;24.734;2023-06-26T08:26:36;29.70;38.70
79762;DHT22;69249;42.122;24.734;2023-06-26T08:29:02;29.80;38.60
79762;DHT22;69249;42.122;24.734;2023-06-26T08:31:37;29.80;38.40
79762;DHT22;69249;42.122;24.734;2023-06-26T08:34:03;29.80;39.50
79762;DHT22;69249;42.122;24.734;2023-06-26T08:36:29;29.80;38.10
79762;DHT22;69249;42.122;24.734;2023-06-26T08:38:54;29.80;38.30
79762;DHT22;69249;42.122;24.734;2023-06-26T08:41:20;29.70;39.00
79762;DHT22;69249;42.122;24.734;2023-06-26T08:43:46;29.80;38.90
79762;DHT22;69249;42.122;24.734;2023-06-26T08:46:11;30.00;38.90
79762;DHT22;69249;42.122;24.734;2023-06-26T08:48:37;30.20;40.20
79762;DHT22;69249;42.122;24.734;2023-06-26T08:51:13;30.40;40.40
79762;DHT22;69249;42.122;24.734;2023-06-26T08:53:50;30.40;41.00
79762;DHT22;69249;42.122;24.734;2023-06-26T08:56:19;30.40;40.70
79762;DHT22;69249;42.122;24.734;2023-06-26T08:58:47;30.40;40.90
79762;DHT22;69249;42.122;24.734;2023-06-26T09:01:13;30.40;40.50
79762;DHT22;69249;42.122;24.734;2023-06-26T09:03:39;30.40;40.80
79762;DHT22;69249;42.122;24.734;2023-06-26T09:06:07;30.50;40.40
79762;DHT22;69249;42.122;24.734;2023-06-26T09:08:32;30.40;39.90
79762;DHT22;69249;42.122;24.734;2023-06-26T09:10:58;30.50;40.30
79762;DHT22;69249;42.122;24.734;2023-06-26T09:13:24;30.60;39.60
79762;DHT22;69249;42.122;24.734;2023-06-26T09:15:53;30.80;37.10
79762;DHT22;69249;42.122;24.734;2023-06-26T09:18:20;31.10;37.20
79762;DHT22;69249;42.122;24.734;2023-06-26T09:20:47;31.50;37.50
79762;DHT22;69249;42.122;24.734;2023-06-26T09:23:13;31.70;34.50
79762;DHT22;69249;42.122;24.734;2023-06-26T09:25:40;32.00;34.20
79762;DHT22;69249;42.122;24.734;2023-06-26T09:28:06;32.20;33.80
79762;DHT22;69249;42.122;24.734;2023-06-26T09:30:35;32.30;33.60
79762;DHT22;69249;42.122;24.734;2023-06-26T09:33:21;32.20;33.10
79762;DHT22;69249;42.122;24.734;2023-06-26T09:35:47;31.70;33.20
79762;DHT22;69249;42.122;24.734;2023-06-26T09:38:13;31.40;34.50
79762;DHT22;69249;42.122;24.734;2023-06-26T09:40:40;31.20;35.20
79762;DHT22;69249;42.122;24.734;2023-06-26T09:43:07;30.90;36.90
79762;DHT22;69249;42.122;24.734;2023-06-26T09:45:34;30.80;37.90
79762;DHT22;69249;42.122;24.734;2023-06-26T09:48:02;30.60;39.60
79762;DHT22;69249;42.122;24.734;2023-06-26T09:50:29;30.70;39.80
79762;DHT22;69249;42.122;24.734;2023-06-26T09:52:56;30.70;38.90
79762;DHT22;69249;42.122;24.734;2023-06-26T09:55:21;30.70;39.30
79762;DHT22;69249;42.122;24.734;2023-06-26T09:57:49;30.60;39.30
79762;DHT22;69249;42.122;24.734;2023-06-26T10:00:19;30.40;40.20
79762;DHT22;69249;42.122;24.734;2023-06-26T10:02:45;30.20;41.10
79762;DHT22;69249;42.122;24.734;2023-06-26T10:05:10;30.20;41.00
79762;DHT22;69249;42.122;24.734;2023-06-26T10:07:37;30.20;40.30
79762;DHT22;69249;42.122;24.734;2023-06-26T10:10:05;30.20;41.30
79762;DHT22;69249;42.122;24.734;2023-06-26T10:12:33;30.20;42.00
79762;DHT22;69249;42.122;24.734;2023-06-26T10:15:02;30.20;41.70
79762;DHT22;69249;42.122;24.734;2023-06-26T10:17:34;30.20;41.50
79762;DHT22;69249;42.122;24.734;2023-06-26T10:20:02;30.20;41.70
79762;DHT22;69249;42.122;24.734;2023-06-26T10:22:31;30.20;42.00
79762;DHT22;69249;42.122;24.734;2023-06-26T10:25:00;30.20;42.10
79762;DHT22;69249;42.122;24.734;2023-06-26T10:27:35;30.40;41.30
79762;DHT22;69249;42.122;24.734;2023-06-26T10:30:03;30.60;41.70
79762;DHT22;69249;42.122;24.734;2023-06-26T10:32:31;30.80;41.90
79762;DHT22;69249;42.122;24.734;2023-06-26T10:34:57;31.10;40.50
79762;DHT22;69249;42.122;24.734;2023-06-26T10:37:46;31.50;37.20
79762;DHT22;69249;42.122;24.734;2023-06-26T10:40:21;31.80;36.40
79762;DHT22;69249;42.122;24.734;2023-06-26T10:42:47;32.10;35.10
79762;DHT22;69249;42.122;24.734;2023-06-26T10:45:21;32.10;35.20
79762;DHT22;69249;42.122;24.734;2023-06-26T10:47:48;32.30;33.90
79762;DHT22;69249;42.122;24.734;2023-06-26T10:50:26;32.30;33.10
79762;DHT22;69249;42.122;24.734;2023-06-26T10:56:03;32.30;32.60
79762;DHT22;69249;42.122;24.734;2023-06-26T11:01:26;32.30;33.80
79762;DHT22;69249;42.122;24.734;2023-06-26T11:04:06;32.20;34.00
79762;DHT22;69249;42.122;24.734;2023-06-26T11:06:33;32.30;33.10
79762;DHT22;69249;42.122;24.734;2023-06-26T11:09:09;32.30;33.10
79762;DHT22;69249;42.122;24.734;2023-06-26T11:14:26;33.20;35.00
79762;DHT22;69249;42.122;24.734;2023-06-26T11:16:52;33.80;35.20
79762;DHT22;69249;42.122;24.734;2023-06-26T11:19:20;34.30;33.80
79762;DHT22;69249;42.122;24.734;2023-06-26T11:21:46;35.00;32.60
79762;DHT22;69249;42.122;24.734;2023-06-26T11:24:13;35.70;30.90
79762;DHT22;69249;42.122;24.734;2023-06-26T11:26:43;35.50;31.50
79762;DHT22;69249;42.122;24.734;2023-06-26T11:29:10;35.20;31.30
79762;DHT22;69249;42.122;24.734;2023-06-26T11:31:37;34.90;30.40
79762;DHT22;69249;42.122;24.734;2023-06-26T11:34:05;34.60;31.70
79762;DHT22;69249;42.122;24.734;2023-06-26T11:36:31;34.40;30.90
79762;DHT22;69249;42.122;24.734;2023-06-26T11:39:02;34.10;30.90
79762;DHT22;69249;42.122;24.734;2023-06-26T11:41:33;33.70;32.30
79762;DHT22;69249;42.122;24.734;2023-06-26T11:44:06;33.50;32.90
79762;DHT22;69249;42.122;24.734;2023-06-26T11:46:33;33.30;33.80
79762;DHT22;69249;42.122;24.734;2023-06-26T11:48:59;33.10;35.20
79762;DHT22;69249;42.122;24.734;2023-06-26T11:51:28;33.00;36.60
79762;DHT22;69249;42.122;24.734;2023-06-26T11:53:54;32.80;37.70
79762;DHT22;69249;42.122;24.734;2023-06-26T11:56:19;32.70;39.60
79762;DHT22;69249;42.122;24.734;2023-06-26T11:59:04;32.50;46.60
79762;DHT22;69249;42.122;24.734;2023-06-26T12:01:41;32.20;48.70
79762;DHT22;69249;42.122;24.734;2023-06-26T12:04:09;31.80;46.80
79762;DHT22;69249;42.122;24.734;2023-06-26T12:06:38;31.30;49.80
79762;DHT22;69249;42.122;24.734;2023-06-26T12:09:10;31.00;51.20
79762;DHT22;69249;42.122;24.734;2023-06-26T12:11:41;30.70;50.40
79762;DHT22;69249;42.122;24.734;2023-06-26T12:14:08;30.60;49.30
79762;DHT22;69249;42.122;24.734;2023-06-26T12:16:35;30.40;50.80
79762;DHT22;69249;42.122;24.734;2023-06-26T12:19:02;30.90;51.90
79762;DHT22;69249;42.122;24.734;2023-06-26T12:21:48;31.50;43.70
79762;DHT22;69249;42.122;24.734;2023-06-26T12:24:20;32.40;46.30
79762;DHT22;69249;42.122;24.734;2023-06-26T12:26:51;32.90;40.20
79762;DHT22;69249;42.122;24.734;2023-06-26T12:29:19;33.20;43.30
79762;DHT22;69249;42.122;24.734;2023-06-26T12:31:52;33.60;43.20
79762;DHT22;69249;42.122;24.734;2023-06-26T12:34:20;34.00;39.20
79762;DHT22;69249;42.122;24.734;2023-06-26T12:36:50;34.30;37.40
79762;DHT22;69249;42.122;24.734;2023-06-26T12:39:20;34.50;35.40
79762;DHT22;69249;42.122;24.734;2023-06-26T12:41:53;34.80;35.90
79762;DHT22;69249;42.122;24.734;2023-06-26T12:44:26;34.80;34.30
79762;DHT22;69249;42.122;24.734;2023-06-26T12:47:01;35.00;36.40
79762;DHT22;69249;42.122;24.734;2023-06-26T12:49:37;35.20;35.90
79762;DHT22;69249;42.122;24.734;2023-06-26T12:52:14;35.40;35.90
79762;DHT22;69249;42.122;24.734;2023-06-26T12:54:41;35.40;32.50
79762;DHT22;69249;42.122;24.734;2023-06-26T12:57:08;35.40;31.80
79762;DHT22;69249;42.122;24.734;2023-06-26T12:59:36;35.10;32.30
79762;DHT22;69249;42.122;24.734;2023-06-26T13:02:03;34.90;32.50
79762;DHT22;69249;42.122;24.734;2023-06-26T13:04:29;34.90;33.70
79762;DHT22;69249;42.122;24.734;2023-06-26T13:06:55;34.80;35.30
79762;DHT22;69249;42.122;24.734;2023-06-26T13:09:22;34.30;36.40
79762;DHT22;69249;42.122;24.734;2023-06-26T13:11:49;33.80;37.00
79762;DHT22;69249;42.122;24.734;2023-06-26T13:14:15;33.40;37.40
79762;DHT22;69249;42.122;24.734;2023-06-26T13:16:41;32.80;38.40
79762;DHT22;69249;42.122;24.734;2023-06-26T13:19:06;32.40;40.20
79762;DHT22;69249;42.122;24.734;2023-06-26T13:21:33;32.20;41.90
79762;DHT22;69249;42.122;24.734;2023-06-26T13:23:59;32.00;42.10
79762;DHT22;69249;42.122;24.734;2023-06-26T13:26:25;31.90;42.90
79762;DHT22;69249;42.122;24.734;2023-06-26T13:28:55;31.60;43.20
79762;DHT22;69249;42.122;24.734;2023-06-26T13:31:20;31.50;43.50
79762;DHT22;69249;42.122;24.734;2023-06-26T13:33:47;31.30;43.40
79762;DHT22;69249;42.122;24.734;2023-06-26T13:36:18;31.20;43.70
79762;DHT22;69249;42.122;24.734;2023-06-26T13:38:44;31.00;43.80
79762;DHT22;69249;42.122;24.734;2023-06-26T13:41:09;30.70;44.70
79762;DHT22;69249;42.122;24.734;2023-06-26T13:43:35;30.50;45.00
79762;DHT22;69249;42.122;24.734;2023-06-26T13:46:01;30.20;46.00
79762;DHT22;69249;42.122;24.734;2023-06-26T13:48:28;30.10;46.20
79762;DHT22;69249;42.122;24.734;2023-06-26T13:50:54;30.00;46.60
79762;DHT22;69249;42.122;24.734;2023-06-26T13:53:20;29.80;47.50
79762;DHT22;69249;42.122;24.734;2023-06-26T13:55:45;29.70;47.30
79762;DHT22;69249;42.122;24.734;2023-06-26T13:58:11;29.70;46.80
79762;DHT22;69249;42.122;24.734;2023-06-26T14:00:38;29.60;46.70
79762;DHT22;69249;42.122;24.734;2023-06-26T14:03:05;29.60;47.40
79762;DHT22;69249;42.122;24.734;2023-06-26T14:05:33;29.50;47.40
79762;DHT22;69249;42.122;24.734;2023-06-26T14:07:59;29.70;47.20
79762;DHT22;69249;42.122;24.734;2023-06-26T14:10:24;29.80;46.60
79762;DHT22;69249;42.122;24.734;2023-06-26T14:12:50;29.90;46.00
79762;DHT22;69249;42.122;24.734;2023-06-26T14:15:16;30.00;45.60
79762;DHT22;69249;42.122;24.734;2023-06-26T14:17:42;30.00;45.60
79762;DHT22;69249;42.122;24.734;2023-06-26T14:20:09;29.90;45.30
79762;DHT22;69249;42.122;24.734;2023-06-26T14:22:36;29.80;46.00
79762;DHT22;69249;42.122;24.734;2023-06-26T14:25:02;29.70;46.00
79762;DHT22;69249;42.122;24.734;2023-06-26T14:27:28;29.50;45.70
79762;DHT22;69249;42.122;24.734;2023-06-26T14:29:54;29.30;46.50
79762;DHT22;69249;42.122;24.734;2023-06-26T14:32:19;29.20;46.70
79762;DHT22;69249;42.122;24.734;2023-06-26T14:34:45;29.10;46.30
79762;DHT22;69249;42.122;24.734;2023-06-26T14:37:11;29.10;46.70
79762;DHT22;69249;42.122;24.734;2023-06-26T14:39:36;28.90;47.40
79762;DHT22;69249;42.122;24.734;2023-06-26T14:42:04;28.90;47.10
79762;DHT22;69249;42.122;24.734;2023-06-26T14:44:30;29.00;47.40
79762;DHT22;69249;42.122;24.734;2023-06-26T14:46:56;29.00;46.60
79762;DHT22;69249;42.122;24.734;2023-06-26T14:49:22;29.10;45.80
79762;DHT22;69249;42.122;24.734;2023-06-26T14:51:47;29.30;45.90
79762;DHT22;69249;42.122;24.734;2023-06-26T14:54:13;29.60;45.40
79762;DHT22;69249;42.122;24.734;2023-06-26T14:56:39;29.80;44.70
79762;DHT22;69249;42.122;24.734;2023-06-26T14:59:05;30.10;43.30
79762;DHT22;69249;42.122;24.734;2023-06-26T15:01:33;30.30;42.90
79762;DHT22;69249;42.122;24.734;2023-06-26T15:03:59;30.50;42.70
79762;DHT22;69249;42.122;24.734;2023-06-26T15:06:24;30.60;42.20
79762;DHT22;69249;42.122;24.734;2023-06-26T15:08:50;30.70;43.30
79762;DHT22;69249;42.122;24.734;2023-06-26T15:11:17;30.70;42.80
79762;DHT22;69249;42.122;24.734;2023-06-26T15:13:43;30.60;41.30
79762;DHT22;69249;42.122;24.734;2023-06-26T15:16:09;30.40;41.80
79762;DHT22;69249;42.122;24.734;2023-06-26T15:18:35;30.20;42.40
79762;DHT22;69249;42.122;24.734;2023-06-26T15:21:01;30.10;42.50
79762;DHT22;69249;42.122;24.734;2023-06-26T15:23:28;30.10;43.70
79762;DHT22;69249;42.122;24.734;2023-06-26T15:25:54;30.00;43.80
79762;DHT22;69249;42.122;24.734;2023-06-26T15:28:20;29.90;43.30
79762;DHT22;69249;42.122;24.734;2023-06-26T15:30:46;29.90;43.00
79762;DHT22;69249;42.122;24.734;2023-06-26T15:33:12;29.90;42.70